Time;durP1;ratioP1;P1;durP2;ratioP2;P2;SDS_P1;SDS_P2;PMS_P1;PMS_P2;Temp;Humidity;BMP_temperature;BMP_pressure;BME280_temperature;BME280_humidity;BME280_pressure;Samples;Min_cycle;Max_cycle;Signal;HPM_P1;HPM_P2
2022/07/30 00:01:20;;;;;;;1.83;1.40;;;18.30;99.90;;;;;;5070973;28;20486;-48
2022/07/30 00:03:48;;;;;;;1.60;1.33;;;18.20;99.90;;;;;;5070894;28;20445;-47
2022/07/30 00:06:15;;;;;;;2.20;1.53;;;18.20;99.90;;;;;;5070741;28;20867;-46
2022/07/30 00:08:42;;;;;;;2.07;1.30;;;18.10;99.90;;;;;;5070734;28;20444;-49
2022/07/30 00:11:10;;;;;;;1.83;1.40;;;18.10;99.90;;;;;;5071266;28;20526;-47
2022/07/30 00:13:37;;;;;;;2.10;1.60;;;18.10;99.90;;;;;;5070692;28;20453;-47
2022/07/30 00:16:06;;;;;;;2.57;1.70;;;18.00;99.90;;;;;;5070187;28;20445;-49
2022/07/30 00:18:33;;;;;;;3.80;1.60;;;18.00;99.90;;;;;;5070173;28;20531;-47
2022/07/30 00:21:01;;;;;;;1.70;1.40;;;18.00;99.90;;;;;;5070570;28;20437;-47
2022/07/30 00:23:28;;;;;;;2.17;1.30;;;18.00;99.90;;;;;;5070639;28;20506;-47
2022/07/30 00:25:55;;;;;;;2.30;1.70;;;18.10;99.90;;;;;;5070636;28;20532;-47
2022/07/30 00:28:22;;;;;;;3.60;2.20;;;18.10;99.90;;;;;;5070559;28;20467;-48
2022/07/30 00:30:49;;;;;;;2.00;1.73;;;18.20;99.90;;;;;;5070513;28;20440;-49
2022/07/30 00:33:16;;;;;;;2.60;1.60;;;18.20;99.90;;;;;;5070375;28;20464;-49
2022/07/30 00:35:44;;;;;;;1.70;1.20;;;18.20;99.90;;;;;;5070421;28;20511;-47
2022/07/30 00:38:12;;;;;;;2.73;1.53;;;18.20;99.90;;;;;;5070141;28;20499;-47
2022/07/30 00:40:40;;;;;;;2.43;1.53;;;18.10;99.90;;;;;;5069644;28;20431;-47
2022/07/30 00:43:07;;;;;;;2.73;1.70;;;18.00;99.90;;;;;;5070136;28;20476;-49
2022/07/30 00:45:36;;;;;;;2.37;1.93;;;18.10;99.90;;;;;;5070368;28;20444;-47
2022/07/30 00:48:03;;;;;;;2.23;1.93;;;18.20;99.90;;;;;;5070122;28;20436;-49
2022/07/30 00:50:30;;;;;;;3.73;1.70;;;18.10;99.90;;;;;;5069864;28;20437;-47
2022/07/30 00:52:57;;;;;;;3.20;2.13;;;18.20;99.90;;;;;;5069998;28;20464;-50
2022/07/30 00:55:25;;;;;;;2.53;1.93;;;18.20;99.90;;;;;;5070408;28;20472;-47
2022/07/30 00:57:52;;;;;;;2.73;1.97;;;18.20;99.90;;;;;;5070280;28;20499;-47
2022/07/30 01:00:20;;;;;;;2.60;1.80;;;18.20;99.90;;;;;;5070131;28;20448;-48
2022/07/30 01:02:47;;;;;;;2.80;1.93;;;18.20;99.90;;;;;;5069978;28;20445;-51
2022/07/30 01:05:14;;;;;;;1.90;1.50;;;18.20;99.90;;;;;;5069999;28;20449;-47
2022/07/30 01:07:41;;;;;;;1.90;1.40;;;18.10;99.90;;;;;;5069986;28;20452;-49
2022/07/30 01:10:10;;;;;;;1.80;1.17;;;18.10;99.90;;;;;;5069645;28;20895;-47
2022/07/30 01:12:39;;;;;;;2.40;1.37;;;18.00;99.90;;;;;;5069880;28;20495;-46
2022/07/30 01:15:08;;;;;;;3.93;1.50;;;18.00;99.90;;;;;;5070290;28;20502;-49
2022/07/30 01:17:36;;;;;;;2.17;1.53;;;18.00;99.90;;;;;;5069765;28;20831;-47
2022/07/30 01:20:06;;;;;;;1.60;1.40;;;18.00;99.90;;;;;;5070038;28;20440;-47
2022/07/30 01:22:47;;;;;;;2.30;1.10;;;18.00;99.90;;;;;;5069751;28;20929;-47
2022/07/30 01:25:20;;;;;;;2.00;1.10;;;17.90;99.90;;;;;;5069923;28;20476;-50
2022/07/30 01:27:52;;;;;;;2.87;1.10;;;17.90;99.90;;;;;;5071214;28;20474;-47
2022/07/30 01:30:21;;;;;;;2.60;1.27;;;17.90;99.90;;;;;;5076197;28;20448;-51
2022/07/30 01:32:51;;;;;;;1.50;1.13;;;17.80;99.90;;;;;;5076221;28;21001;-46
2022/07/30 01:35:20;;;;;;;1.87;1.30;;;17.80;99.90;;;;;;5076419;28;20451;-49
2022/07/30 01:37:47;;;;;;;1.97;1.30;;;17.90;99.90;;;;;;5076127;28;20472;-47
2022/07/30 01:40:14;;;;;;;2.37;1.07;;;17.90;99.90;;;;;;5076083;28;20489;-47
2022/07/30 01:42:43;;;;;;;2.10;1.50;;;17.90;99.90;;;;;;5075805;28;20451;-50
2022/07/30 01:45:12;;;;;;;3.23;1.80;;;18.00;99.90;;;;;;5076311;28;20475;-48
2022/07/30 01:47:42;;;;;;;2.17;1.50;;;17.90;99.90;;;;;;5076459;28;20543;-50
2022/07/30 01:50:13;;;;;;;2.33;1.20;;;18.00;99.90;;;;;;5076079;28;20511;-47
2022/07/30 01:52:43;;;;;;;3.00;1.47;;;18.00;99.90;;;;;;5076040;28;20428;-49
2022/07/30 01:55:15;;;;;;;3.10;1.33;;;18.00;99.90;;;;;;5076299;28;20485;-47
2022/07/30 01:57:45;;;;;;;1.87;1.40;;;18.00;99.90;;;;;;5076035;28;20464;-52
2022/07/30 02:00:14;;;;;;;1.57;1.03;;;18.00;99.90;;;;;;5075980;28;20516;-48
2022/07/30 02:02:41;;;;;;;1.60;1.10;;;17.90;99.90;;;;;;5075920;28;20494;-48
2022/07/30 02:05:09;;;;;;;1.60;1.00;;;17.90;99.90;;;;;;5076438;28;20428;-48
2022/07/30 02:07:41;;;;;;;2.37;1.10;;;17.80;99.90;;;;;;5076071;28;20440;-46
2022/07/30 02:10:12;;;;;;;2.63;1.10;;;17.80;99.90;;;;;;5076145;28;20493;-47
2022/07/30 02:12:48;;;;;;;2.10;1.37;;;17.70;99.90;;;;;;5076192;28;20973;-47
2022/07/30 02:15:24;;;;;;;2.17;1.20;;;17.60;99.90;;;;;;5076108;28;20440;-47
2022/07/30 02:17:58;;;;;;;3.43;1.20;;;17.60;99.90;;;;;;5075857;28;20476;-47
2022/07/30 02:20:28;;;;;;;1.60;1.20;;;17.60;99.90;;;;;;5076105;28;20596;-47
2022/07/30 02:23:00;;;;;;;1.97;1.13;;;17.60;99.90;;;;;;5075961;28;20464;-47
2022/07/30 02:25:28;;;;;;;2.20;1.13;;;17.60;99.90;;;;;;5075993;28;20449;-49
2022/07/30 02:28:02;;;;;;;2.33;1.50;;;17.70;99.90;;;;;;5076005;28;20466;-48
2022/07/30 02:30:32;;;;;;;2.93;1.53;;;17.60;99.90;;;;;;5075575;28;20432;-49
2022/07/30 02:33:04;;;;;;;2.90;1.37;;;17.60;99.90;;;;;;5075730;28;21014;-47
2022/07/30 02:35:33;;;;;;;2.77;1.50;;;17.70;99.90;;;;;;5075843;28;20444;-49
2022/07/30 02:38:01;;;;;;;3.37;1.27;;;17.70;99.90;;;;;;5075712;28;20504;-47
2022/07/30 02:40:29;;;;;;;2.50;1.40;;;17.70;99.90;;;;;;5072546;28;20521;-47
2022/07/30 02:42:57;;;;;;;1.83;1.30;;;17.70;99.90;;;;;;5072539;28;20476;-47
2022/07/30 02:45:25;;;;;;;2.87;1.83;;;17.70;99.90;;;;;;5072621;28;20440;-51
2022/07/30 02:47:57;;;;;;;3.53;1.77;;;17.80;99.90;;;;;;5072592;28;20531;-47
2022/07/30 02:50:26;;;;;;;3.73;1.20;;;17.80;99.90;;;;;;5072663;28;20444;-47
2022/07/30 02:52:54;;;;;;;1.80;1.40;;;17.90;99.90;;;;;;5072634;28;20452;-47
2022/07/30 02:55:22;;;;;;;1.80;1.07;;;17.90;99.90;;;;;;5072466;28;20441;-47
2022/07/30 02:57:52;;;;;;;3.10;1.50;;;17.90;99.90;;;;;;5072320;28;20461;-47
2022/07/30 03:00:20;;;;;;;1.63;1.20;;;17.90;99.90;;;;;;5072134;28;20444;-48
2022/07/30 03:02:47;;;;;;;2.63;1.50;;;17.90;99.90;;;;;;5072232;28;20437;-49
2022/07/30 03:05:16;;;;;;;3.30;1.40;;;17.90;99.90;;;;;;5072270;28;20765;-47
2022/07/30 03:07:45;;;;;;;1.80;1.10;;;17.90;99.90;;;;;;5072161;28;20502;-48
2022/07/30 03:10:13;;;;;;;2.60;1.67;;;18.00;99.90;;;;;;5071963;28;20472;-47
2022/07/30 03:12:44;;;;;;;2.10;1.73;;;18.00;99.90;;;;;;5071915;28;20462;-47
2022/07/30 03:15:12;;;;;;;1.93;1.50;;;18.00;99.90;;;;;;5072069;28;20448;-47
2022/07/30 03:17:43;;;;;;;1.80;1.20;;;17.90;99.90;;;;;;5072359;28;20961;-49
2022/07/30 03:20:13;;;;;;;3.23;1.23;;;17.90;99.90;;;;;;5071686;28;20448;-48
2022/07/30 03:22:43;;;;;;;6.37;1.50;;;17.90;99.90;;;;;;5071853;28;20468;-51
2022/07/30 03:25:14;;;;;;;2.43;1.40;;;18.00;99.90;;;;;;5071764;28;20439;-51
2022/07/30 03:27:43;;;;;;;3.30;1.37;;;18.00;99.90;;;;;;5071850;28;20494;-47
2022/07/30 03:30:12;;;;;;;2.63;1.50;;;18.00;99.90;;;;;;5071582;28;20440;-52
2022/07/30 03:32:40;;;;;;;3.00;1.43;;;18.10;99.90;;;;;;5071605;28;20490;-47
2022/07/30 03:35:09;;;;;;;6.53;1.50;;;18.10;99.90;;;;;;5071680;28;20445;-47
2022/07/30 03:37:38;;;;;;;1.60;1.07;;;18.10;99.90;;;;;;5071561;28;20464;-47
2022/07/30 03:40:08;;;;;;;2.50;1.20;;;17.90;99.90;;;;;;5071352;28;20445;-49
2022/07/30 03:42:36;;;;;;;2.07;1.43;;;17.90;99.90;;;;;;5070963;28;21014;-49
2022/07/30 03:45:05;;;;;;;1.60;1.30;;;17.90;99.90;;;;;;5145874;22;20552;-52
2022/07/30 03:47:34;;;;;;;2.00;1.50;;;17.80;99.90;;;;;;5091683;28;21022;-49
2022/07/30 03:50:01;;;;;;;1.43;1.20;;;17.70;99.90;;;;;;5091367;28;20444;-54
2022/07/30 03:52:29;;;;;;;3.43;1.23;;;17.70;99.90;;;;;;5091387;28;20507;-51
2022/07/30 03:54:57;;;;;;;2.50;1.57;;;17.70;99.90;;;;;;5091362;28;20448;-53
2022/07/30 03:57:26;;;;;;;2.00;1.37;;;17.70;99.90;;;;;;5091376;28;20435;-54
2022/07/30 03:59:53;;;;;;;3.57;1.37;;;17.80;99.90;;;;;;5091186;28;20455;-49
2022/07/30 04:02:20;;;;;;;3.20;1.60;;;17.80;99.90;;;;;;5091422;28;20424;-52
2022/07/30 04:04:47;;;;;;;1.90;1.23;;;17.80;99.90;;;;;;5091194;28;20821;-49
2022/07/30 04:07:14;;;;;;;2.67;1.80;;;17.90;99.90;;;;;;5091319;28;20443;-51
2022/07/30 04:09:41;;;;;;;2.13;1.93;;;17.90;99.90;;;;;;5091010;28;20440;-52
2022/07/30 04:12:08;;;;;;;2.20;1.70;;;17.90;99.90;;;;;;5091200;28;20944;-49
2022/07/30 04:14:43;;;;;;;2.60;1.40;;;17.80;99.90;;;;;;5090917;28;20979;-49
2022/07/30 04:17:13;;;;;;;2.30;1.60;;;17.80;99.90;;;;;;5090928;28;20432;-51
2022/07/30 04:19:46;;;;;;;2.03;1.30;;;17.60;99.90;;;;;;5090623;28;20976;-51
2022/07/30 04:22:17;;;;;;;1.70;1.20;;;17.60;99.90;;;;;;5091128;28;20482;-49
2022/07/30 04:24:45;;;;;;;1.77;1.27;;;17.60;99.90;;;;;;5091337;28;20463;-52
2022/07/30 04:27:12;;;;;;;15.53;2.07;;;17.50;99.90;;;;;;5090657;28;20820;-52
2022/07/30 04:29:41;;;;;;;2.30;1.13;;;17.50;99.90;;;;;;5090606;28;20443;-50
2022/07/30 04:32:09;;;;;;;3.00;1.37;;;17.50;99.90;;;;;;5090753;28;20944;-55
2022/07/30 04:34:36;;;;;;;3.27;1.73;;;17.60;99.90;;;;;;5090634;28;20570;-53
2022/07/30 04:37:04;;;;;;;2.37;1.40;;;17.70;99.90;;;;;;5090744;28;20452;-51
2022/07/30 04:39:31;;;;;;;2.23;1.40;;;17.80;99.90;;;;;;5090093;28;20463;-52
2022/07/30 04:41:58;;;;;;;5.00;1.47;;;17.60;99.90;;;;;;5090745;28;20447;-51
2022/07/30 04:44:25;;;;;;;2.10;1.40;;;17.50;99.90;;;;;;5090356;28;20471;-54
2022/07/30 04:46:53;;;;;;;2.60;1.70;;;17.60;99.90;;;;;;5090577;28;20459;-49
2022/07/30 04:49:22;;;;;;;2.00;1.20;;;17.50;99.90;;;;;;5090319;28;20443;-49
2022/07/30 04:51:49;;;;;;;1.83;1.50;;;17.60;99.90;;;;;;5090480;28;20451;-49
2022/07/30 04:54:18;;;;;;;1.73;1.60;;;17.70;99.90;;;;;;5090463;28;20463;-49
2022/07/30 04:56:47;;;;;;;3.70;1.50;;;17.70;99.90;;;;;;5090501;28;20504;-51
2022/07/30 04:59:16;;;;;;;2.00;1.40;;;17.70;99.90;;;;;;5089781;28;20927;-49
2022/07/30 05:01:45;;;;;;;1.70;1.43;;;17.60;99.90;;;;;;5090293;28;20448;-49
2022/07/30 05:04:15;;;;;;;1.70;1.30;;;17.60;99.90;;;;;;5089709;28;20513;-52
2022/07/30 05:06:43;;;;;;;2.10;1.80;;;17.50;99.90;;;;;;5090082;28;20477;-50
2022/07/30 05:09:10;;;;;;;2.10;1.50;;;17.50;99.90;;;;;;5090077;28;20467;-49
2022/07/30 05:11:37;;;;;;;2.30;1.60;;;17.60;99.90;;;;;;5090136;28;20970;-49
2022/07/30 05:14:05;;;;;;;2.77;1.70;;;17.60;99.90;;;;;;5090012;28;20572;-54
2022/07/30 05:16:33;;;;;;;3.07;1.77;;;17.60;99.90;;;;;;5090184;28;20990;-52
2022/07/30 05:19:00;;;;;;;2.40;1.50;;;17.70;99.90;;;;;;5089950;28;20484;-50
2022/07/30 05:21:29;;;;;;;2.00;1.57;;;17.80;99.90;;;;;;5090101;28;20452;-51
2022/07/30 05:23:56;;;;;;;1.90;1.63;;;17.80;99.90;;;;;;5090149;28;20544;-50
2022/07/30 05:26:23;;;;;;;2.47;1.60;;;17.80;99.90;;;;;;5089946;28;20443;-49
2022/07/30 05:28:50;;;;;;;2.33;1.60;;;17.80;99.90;;;;;;5089800;28;20943;-52
2022/07/30 05:31:17;;;;;;;2.37;1.20;;;17.80;99.90;;;;;;5089855;28;20789;-50
2022/07/30 05:33:44;;;;;;;3.30;3.00;;;17.90;99.90;;;;;;5089991;28;20979;-49
2022/07/30 05:36:11;;;;;;;2.03;1.70;;;17.80;99.90;;;;;;5089987;28;20443;-49
2022/07/30 05:38:40;;;;;;;2.47;1.57;;;17.80;99.90;;;;;;5089597;28;20895;-52
2022/07/30 05:41:07;;;;;;;4.00;1.80;;;17.80;99.90;;;;;;5089321;28;20443;-51
2022/07/30 05:43:34;;;;;;;2.40;1.83;;;17.80;99.90;;;;;;5089700;28;20471;-49
2022/07/30 05:46:01;;;;;;;2.10;1.83;;;17.80;99.90;;;;;;5089723;28;20515;-50
2022/07/30 05:48:30;;;;;;;2.50;1.73;;;17.90;99.90;;;;;;5089671;28;20439;-50
2022/07/30 05:50:57;;;;;;;2.90;1.70;;;17.90;99.90;;;;;;5089503;28;20442;-55
2022/07/30 05:53:24;;;;;;;2.40;1.63;;;17.90;99.90;;;;;;5089577;28;20477;-49
2022/07/30 05:55:52;;;;;;;2.40;1.67;;;17.90;99.90;;;;;;5089667;28;20420;-54
2022/07/30 05:58:20;;;;;;;4.40;1.63;;;18.00;99.90;;;;;;5089657;28;20471;-49
2022/07/30 06:00:47;;;;;;;2.90;1.60;;;18.00;99.90;;;;;;5089441;28;20466;-50
2022/07/30 06:03:14;;;;;;;2.90;2.13;;;18.10;99.90;;;;;;5089653;28;20454;-50
2022/07/30 06:05:41;;;;;;;2.20;1.77;;;18.10;99.90;;;;;;5089559;28;20432;-49
2022/07/30 06:08:08;;;;;;;2.67;1.60;;;18.10;99.90;;;;;;5089838;28;20455;-50
2022/07/30 06:10:35;;;;;;;2.80;2.23;;;17.90;99.90;;;;;;5089406;28;20497;-49
2022/07/30 06:13:04;;;;;;;1.87;1.67;;;17.90;99.90;;;;;;5089548;28;20493;-51
2022/07/30 06:15:31;;;;;;;2.90;1.83;;;17.90;99.90;;;;;;5090988;28;20977;-49
2022/07/30 06:17:58;;;;;;;2.10;1.53;;;18.00;99.90;;;;;;5093313;28;20447;-50
2022/07/30 06:20:25;;;;;;;3.00;2.30;;;18.40;99.90;;;;;;5093198;28;20475;-52
2022/07/30 06:22:52;;;;;;;2.20;1.60;;;18.80;99.90;;;;;;5093439;28;20797;-50
2022/07/30 06:25:19;;;;;;;3.90;2.00;;;18.90;99.90;;;;;;5093056;28;20512;-54
2022/07/30 06:27:46;;;;;;;4.67;1.50;;;18.70;99.90;;;;;;5093089;28;20500;-50
2022/07/30 06:30:14;;;;;;;1.90;1.40;;;18.50;99.90;;;;;;5093007;28;20447;-49
2022/07/30 06:32:42;;;;;;;2.67;1.70;;;18.60;99.90;;;;;;5093063;28;20452;-53
2022/07/30 06:35:09;;;;;;;3.93;2.20;;;18.80;99.90;;;;;;5092931;28;20501;-49
2022/07/30 06:37:36;;;;;;;2.23;1.80;;;18.80;99.90;;;;;;5093175;28;20436;-49
2022/07/30 06:40:04;;;;;;;1.70;1.60;;;18.90;99.90;;;;;;5092574;28;20471;-51
2022/07/30 06:42:31;;;;;;;2.10;1.57;;;19.00;99.90;;;;;;5092511;28;20447;-51
2022/07/30 06:44:58;;;;;;;1.90;1.60;;;19.10;99.90;;;;;;5092742;28;20475;-52
2022/07/30 06:47:27;;;;;;;3.70;3.10;;;19.00;99.90;;;;;;5092906;28;20493;-50
2022/07/30 06:49:55;;;;;;;1.70;1.47;;;19.10;99.90;;;;;;5092464;28;20439;-52
2022/07/30 06:52:22;;;;;;;4.20;1.53;;;19.10;99.90;;;;;;5092770;28;20936;-50
2022/07/30 06:54:49;;;;;;;1.70;1.40;;;19.10;99.90;;;;;;5092622;28;20975;-51
2022/07/30 06:57:16;;;;;;;2.20;1.53;;;19.00;99.90;;;;;;5093091;28;20508;-50
2022/07/30 06:59:43;;;;;;;3.10;1.70;;;19.00;99.90;;;;;;5092095;28;20552;-53
2022/07/30 07:02:11;;;;;;;4.30;1.70;;;19.00;99.90;;;;;;5092536;28;20489;-49
2022/07/30 07:04:39;;;;;;;4.53;1.60;;;18.90;99.90;;;;;;5092537;28;20521;-50
2022/07/30 07:07:06;;;;;;;3.17;1.80;;;18.90;99.90;;;;;;5093006;28;20447;-49
2022/07/30 07:09:33;;;;;;;2.10;1.70;;;19.00;99.90;;;;;;5091984;28;20436;-50
2022/07/30 07:12:00;;;;;;;2.73;1.40;;;19.10;99.90;;;;;;5092649;28;20508;-50
2022/07/30 07:14:28;;;;;;;3.27;1.87;;;19.10;99.90;;;;;;5092182;28;20516;-52
2022/07/30 07:16:55;;;;;;;2.33;1.83;;;19.20;99.90;;;;;;5092549;28;20473;-49
2022/07/30 07:19:23;;;;;;;2.47;1.70;;;19.30;99.90;;;;;;5092002;28;20520;-50
2022/07/30 07:21:51;;;;;;;2.63;1.90;;;19.40;99.90;;;;;;5092140;28;20440;-49
2022/07/30 07:24:18;;;;;;;2.40;1.67;;;19.30;99.90;;;;;;5092022;28;20528;-49
2022/07/30 07:26:45;;;;;;;2.60;2.00;;;19.40;99.90;;;;;;5091597;28;20947;-52
2022/07/30 07:29:12;;;;;;;3.07;1.83;;;19.30;99.90;;;;;;5091770;28;20439;-49
2022/07/30 07:31:39;;;;;;;2.27;1.87;;;19.20;99.90;;;;;;5092024;28;20444;-52
2022/07/30 07:34:06;;;;;;;3.73;2.03;;;19.10;99.90;;;;;;5091708;28;20478;-49
2022/07/30 07:36:35;;;;;;;2.07;1.50;;;19.00;99.90;;;;;;5090932;28;20470;-52
2022/07/30 07:39:08;;;;;;;3.93;1.77;;;19.00;99.90;;;;;;5090572;28;20983;-52
2022/07/30 07:41:35;;;;;;;2.80;2.13;;;19.00;99.90;;;;;;5090698;28;20456;-50
2022/07/30 07:44:03;;;;;;;3.20;2.10;;;19.00;99.90;;;;;;5090770;28;20837;-50
2022/07/30 07:46:30;;;;;;;2.43;1.67;;;19.00;99.90;;;;;;5090850;28;20443;-51
2022/07/30 07:48:57;;;;;;;5.47;1.57;;;19.00;99.90;;;;;;5090600;28;20443;-51
2022/07/30 07:51:24;;;;;;;2.77;2.00;;;19.00;99.90;;;;;;5090945;28;20448;-49
2022/07/30 07:53:51;;;;;;;2.30;1.90;;;19.00;99.90;;;;;;5091383;28;20468;-50
2022/07/30 07:56:19;;;;;;;2.80;2.10;;;19.00;99.90;;;;;;5091543;28;20497;-49
2022/07/30 07:58:47;;;;;;;2.13;1.90;;;18.90;99.90;;;;;;5090958;28;20481;-51
2022/07/30 08:01:14;;;;;;;3.00;1.80;;;18.80;99.90;;;;;;5091187;28;20801;-50
2022/07/30 08:03:41;;;;;;;2.67;2.00;;;18.70;99.90;;;;;;5091232;28;20471;-50
2022/07/30 08:06:08;;;;;;;2.10;1.80;;;18.70;99.90;;;;;;5091545;28;20452;-49
2022/07/30 08:08:36;;;;;;;2.93;1.70;;;18.50;99.90;;;;;;5091129;28;20939;-50
2022/07/30 08:11:04;;;;;;;2.57;2.00;;;18.50;99.90;;;;;;5091046;28;20439;-49
2022/07/30 08:13:33;;;;;;;2.60;1.70;;;18.50;99.90;;;;;;5090895;28;21041;-49
2022/07/30 08:16:01;;;;;;;3.73;2.10;;;18.50;99.90;;;;;;5090850;28;20481;-53
2022/07/30 08:18:28;;;;;;;3.10;2.10;;;18.50;99.90;;;;;;5090976;28;20443;-50
2022/07/30 08:20:55;;;;;;;2.40;2.20;;;18.50;99.90;;;;;;5090452;28;20544;-49
2022/07/30 08:23:23;;;;;;;2.10;1.90;;;18.50;99.90;;;;;;5090769;28;20448;-52
2022/07/30 08:25:50;;;;;;;3.40;2.77;;;18.60;99.90;;;;;;5090727;28;20939;-51
2022/07/30 08:28:17;;;;;;;3.63;2.40;;;18.70;99.90;;;;;;5090665;28;20921;-49
2022/07/30 08:30:46;;;;;;;3.80;2.23;;;18.70;99.90;;;;;;5090636;28;20440;-50
2022/07/30 08:33:13;;;;;;;2.50;1.83;;;18.80;99.90;;;;;;5090777;28;20532;-49
2022/07/30 08:35:40;;;;;;;2.23;1.70;;;18.80;99.90;;;;;;5090723;28;20436;-50
2022/07/30 08:38:07;;;;;;;2.77;2.13;;;18.70;99.90;;;;;;5089963;28;20944;-50
2022/07/30 08:40:35;;;;;;;2.50;2.30;;;18.70;99.90;;;;;;5089729;28;20471;-49
2022/07/30 08:43:04;;;;;;;2.70;2.03;;;18.80;99.90;;;;;;5090525;28;20509;-50
2022/07/30 08:45:31;;;;;;;3.53;2.20;;;18.80;99.90;;;;;;5090570;28;20452;-49
2022/07/30 08:48:00;;;;;;;3.40;2.30;;;18.90;99.90;;;;;;5090864;28;20496;-51
2022/07/30 08:50:27;;;;;;;2.13;1.93;;;18.80;99.90;;;;;;5090292;28;20436;-49
2022/07/30 08:52:55;;;;;;;2.07;1.87;;;18.60;99.90;;;;;;5090542;28;20443;-50
2022/07/30 08:55:23;;;;;;;3.93;1.80;;;18.50;99.90;;;;;;5090353;28;20517;-51
2022/07/30 08:57:51;;;;;;;3.67;3.03;;;18.60;99.90;;;;;;5090434;28;20516;-53
2022/07/30 09:00:20;;;;;;;3.30;1.87;;;18.60;99.90;;;;;;5089926;28;20899;-49
2022/07/30 09:02:47;;;;;;;2.83;2.27;;;18.70;99.90;;;;;;5090345;28;20478;-52
2022/07/30 09:05:15;;;;;;;2.50;2.30;;;18.60;99.90;;;;;;5090135;28;20497;-50
2022/07/30 09:07:42;;;;;;;2.93;2.63;;;18.60;99.90;;;;;;5090243;28;20460;-51
2022/07/30 09:10:10;;;;;;;6.10;2.50;;;18.70;99.90;;;;;;5090174;28;20500;-52
2022/07/30 09:12:40;;;;;;;3.10;2.20;;;18.60;99.90;;;;;;5090212;28;20987;-49
2022/07/30 09:15:14;;;;;;;3.33;2.33;;;18.50;99.90;;;;;;5089960;28;20454;-49
2022/07/30 09:17:50;;;;;;;2.90;2.33;;;18.50;99.90;;;;;;5090304;28;20473;-49
2022/07/30 09:20:18;;;;;;;4.60;2.30;;;18.50;99.90;;;;;;5089728;28;20471;-49
2022/07/30 09:22:47;;;;;;;2.90;2.60;;;18.50;99.90;;;;;;5090102;28;20493;-49
2022/07/30 09:25:14;;;;;;;3.20;2.70;;;18.60;99.90;;;;;;5089958;28;20898;-53
2022/07/30 09:27:46;;;;;;;4.23;2.90;;;18.60;99.90;;;;;;5090073;28;21029;-49
2022/07/30 09:30:13;;;;;;;5.53;2.70;;;18.60;99.90;;;;;;5089701;28;20469;-51
2022/07/30 09:32:52;;;;;;;2.63;2.43;;;18.60;99.90;;;;;;5089892;28;20491;-50
2022/07/30 09:35:21;;;;;;;3.40;2.40;;;18.60;99.90;;;;;;5089891;28;20463;-53
2022/07/30 09:37:59;;;;;;;2.20;2.00;;;18.50;99.90;;;;;;5089933;28;20447;-50
2022/07/30 09:40:26;;;;;;;3.10;2.80;;;18.40;99.90;;;;;;5089047;28;20463;-48
2022/07/30 09:43:06;;;;;;;2.70;2.37;;;18.40;99.90;;;;;;5089820;28;20825;-50
2022/07/30 09:45:34;;;;;;;2.67;2.30;;;18.30;99.90;;;;;;5132794;22;21041;-48
2022/07/30 09:48:02;;;;;;;3.30;3.00;;;18.30;99.90;;;;;;5069676;28;20437;-51
2022/07/30 09:50:31;;;;;;;2.70;2.20;;;18.10;99.90;;;;;;5072827;28;20441;-50
2022/07/30 09:53:07;;;;;;;4.27;2.60;;;18.10;99.90;;;;;;5073614;28;20903;-49
2022/07/30 09:55:36;;;;;;;3.10;2.57;;;18.10;99.90;;;;;;5073490;28;20529;-51
2022/07/30 09:58:05;;;;;;;3.40;2.53;;;18.20;99.90;;;;;;5073574;28;20444;-47
2022/07/30 10:00:33;;;;;;;3.00;2.70;;;18.20;99.90;;;;;;5072839;28;20476;-46
2022/07/30 10:03:01;;;;;;;2.90;2.60;;;18.30;99.90;;;;;;5073354;28;20494;-50
2022/07/30 10:05:29;;;;;;;2.40;2.20;;;18.40;99.90;;;;;;5073196;28;20787;-52
2022/07/30 10:07:59;;;;;;;2.50;2.30;;;18.50;99.90;;;;;;5073410;28;20466;-47
2022/07/30 10:10:27;;;;;;;2.00;1.80;;;18.70;99.90;;;;;;5073007;28;20432;-47
2022/07/30 10:12:58;;;;;;;2.57;2.00;;;18.90;99.90;;;;;;5072733;28;20847;-47
2022/07/30 10:15:28;;;;;;;2.20;2.00;;;18.90;99.90;;;;;;5072738;28;20452;-49
2022/07/30 10:17:55;;;;;;;1.97;1.50;;;19.00;99.90;;;;;;5073007;28;20428;-47
2022/07/30 10:20:23;;;;;;;2.50;2.30;;;19.10;99.90;;;;;;5072385;28;20563;-47
2022/07/30 10:22:50;;;;;;;7.13;2.40;;;19.20;99.90;;;;;;5072531;28;20884;-51
2022/07/30 10:25:19;;;;;;;2.13;1.70;;;19.30;99.90;;;;;;5072317;28;20929;-48
2022/07/30 10:27:47;;;;;;;3.10;1.50;;;19.40;99.90;;;;;;5072390;28;20948;-48
2022/07/30 10:30:14;;;;;;;2.10;1.80;;;19.40;99.90;;;;;;5072094;28;20485;-53
2022/07/30 10:32:41;;;;;;;2.10;1.90;;;19.50;99.90;;;;;;5072442;28;20515;-47
2022/07/30 10:35:09;;;;;;;2.57;2.10;;;19.50;99.90;;;;;;5072291;28;20548;-47
2022/07/30 10:37:38;;;;;;;2.50;1.80;;;19.70;99.90;;;;;;5072283;28;20468;-47
2022/07/30 10:40:14;;;;;;;2.40;2.20;;;19.90;99.90;;;;;;5071775;28;20534;-47
2022/07/30 10:43:03;;;;;;;2.60;2.10;;;20.10;99.90;;;;;;5071722;28;20538;-51
2022/07/30 10:45:43;;;;;;;2.20;1.83;;;20.10;99.90;;;;;;5071851;28;20601;-47
2022/07/30 10:48:10;;;;;;;2.20;2.00;;;20.20;99.90;;;;;;5071633;28;20448;-47
2022/07/30 10:50:50;;;;;;;3.20;2.57;;;20.30;99.90;;;;;;5071422;28;20506;-50
2022/07/30 10:53:33;;;;;;;3.27;2.20;;;20.50;99.90;;;;;;5071495;28;20547;-47
2022/07/30 10:56:12;;;;;;;2.43;2.23;;;20.50;99.90;;;;;;5071425;28;20790;-49
2022/07/30 10:58:58;;;;;;;2.40;2.20;;;20.60;99.90;;;;;;5071390;28;20463;-47
2022/07/30 11:01:26;;;;;;;2.77;2.23;;;20.70;99.90;;;;;;5070894;28;20544;-47
2022/07/30 11:04:20;;;;;;;2.20;2.00;;;20.70;99.90;;;;;;5071724;28;20464;-48
2022/07/30 11:06:48;;;;;;;2.60;2.37;;;20.70;99.90;;;;;;5071759;28;20452;-47
2022/07/30 11:09:37;;;;;;;2.03;1.83;;;20.80;99.90;;;;;;5071319;28;20429;-47
2022/07/30 11:12:05;;;;;;;3.07;2.00;;;20.90;99.90;;;;;;5071663;28;20517;-47
2022/07/30 11:15:00;;;;;;;2.70;1.80;;;21.00;99.90;;;;;;5071283;28;21026;-47
2022/07/30 11:17:47;;;;;;;2.07;1.80;;;21.10;99.90;;;;;;5071609;28;21190;-47
2022/07/30 11:20:14;;;;;;;2.07;1.47;;;21.30;99.90;;;;;;5070968;28;21013;-47
2022/07/30 11:22:43;;;;;;;2.63;1.83;;;21.30;99.90;;;;;;5071350;28;20914;-50
2022/07/30 11:25:31;;;;;;;1.77;1.67;;;21.30;99.90;;;;;;5071369;28;20472;-47
2022/07/30 11:27:59;;;;;;;2.00;1.60;;;21.30;99.90;;;;;;5071029;28;20801;-47
2022/07/30 11:30:35;;;;;;;3.47;1.80;;;21.20;99.90;;;;;;5071060;28;20969;-48
2022/07/30 11:33:24;;;;;;;1.80;1.70;;;21.30;99.90;;;;;;5071213;28;20569;-50
2022/07/30 11:36:06;;;;;;;2.20;1.70;;;21.30;99.90;;;;;;5060456;28;21064;-47
2022/07/30 11:38:55;;;;;;;1.83;1.40;;;21.30;99.90;;;;;;5071015;28;20828;-47
2022/07/30 11:41:23;;;;;;;2.37;1.77;;;21.30;99.90;;;;;;5070614;28;20507;-48
2022/07/30 11:44:26;;;;;;;2.10;1.60;;;21.40;99.90;;;;;;5070916;28;20526;-47
2022/07/30 11:46:54;;;;;;;2.07;1.43;;;21.40;99.90;;;;;;5071055;28;20475;-52
2022/07/30 11:49:21;;;;;;;3.80;2.00;;;21.40;99.90;;;;;;5070665;28;20441;-48
2022/07/30 11:51:49;;;;;;;1.70;1.30;;;21.40;99.90;;;;;;5070895;28;20443;-48
2022/07/30 11:54:17;;;;;;;2.17;1.70;;;21.40;99.90;;;;;;5070611;28;20472;-47
2022/07/30 11:56:52;;;;;;;2.00;1.67;;;21.40;99.90;;;;;;5070700;28;20433;-47
2022/07/30 11:59:19;;;;;;;2.70;1.77;;;21.40;99.90;;;;;;5070469;28;20533;-47
2022/07/30 12:01:50;;;;;;;2.13;1.53;;;21.50;99.90;;;;;;5070517;28;20479;-47
2022/07/30 12:04:19;;;;;;;2.23;1.63;;;21.60;99.90;;;;;;5070766;28;20472;-47
2022/07/30 12:06:47;;;;;;;3.80;1.67;;;21.70;99.90;;;;;;5070591;28;20445;-52
2022/07/30 12:09:22;;;;;;;1.63;1.53;;;21.70;99.90;;;;;;5070361;28;20448;-49
2022/07/30 12:11:49;;;;;;;1.83;1.53;;;21.70;99.90;;;;;;5070285;28;20523;-47
2022/07/30 12:14:16;;;;;;;2.40;1.80;;;21.60;99.90;;;;;;5070211;28;20953;-51
2022/07/30 12:16:50;;;;;;;4.10;1.60;;;21.60;99.90;;;;;;5070270;28;20433;-47
2022/07/30 12:19:19;;;;;;;2.40;2.20;;;21.60;99.90;;;;;;5070120;28;20448;-47
2022/07/30 12:21:46;;;;;;;2.20;1.67;;;21.70;99.90;;;;;;5069696;28;21052;-48
2022/07/30 12:24:13;;;;;;;1.57;1.30;;;21.70;99.90;;;;;;5070132;28;20469;-48
2022/07/30 12:26:40;;;;;;;3.23;1.80;;;21.60;99.90;;;;;;5070035;28;20766;-48
2022/07/30 12:29:11;;;;;;;1.90;1.50;;;21.60;99.90;;;;;;5069865;28;20494;-50
2022/07/30 12:31:39;;;;;;;2.10;1.80;;;21.60;99.90;;;;;;5070149;28;20448;-49
2022/07/30 12:34:21;;;;;;;1.97;1.77;;;21.60;99.90;;;;;;5070434;28;20551;-50
2022/07/30 12:36:49;;;;;;;1.73;1.53;;;21.50;99.90;;;;;;5069790;28;20520;-47
2022/07/30 12:39:20;;;;;;;1.70;1.60;;;21.50;99.90;;;;;;5069884;28;20432;-47
2022/07/30 12:41:49;;;;;;;4.30;1.80;;;21.40;99.90;;;;;;5069797;28;20560;-49
2022/07/30 12:44:36;;;;;;;4.00;2.00;;;21.40;99.90;;;;;;5069835;28;20472;-47
2022/07/30 12:47:04;;;;;;;2.00;1.60;;;21.40;99.90;;;;;;5069688;28;20429;-47
2022/07/30 12:49:33;;;;;;;2.00;1.73;;;21.50;99.90;;;;;;5069459;28;20428;-47
2022/07/30 12:52:00;;;;;;;2.20;1.90;;;21.60;99.90;;;;;;5069641;28;20436;-47
2022/07/30 12:54:28;;;;;;;2.00;1.80;;;21.60;99.90;;;;;;5069706;28;20518;-49
2022/07/30 12:56:59;;;;;;;1.80;1.43;;;21.60;99.90;;;;;;5069615;28;20909;-47
2022/07/30 12:59:27;;;;;;;2.30;1.97;;;21.70;99.90;;;;;;5069277;28;20433;-48